Skip Navigation LinksHome page > Weather > Current weather Skip Navigation Links

Current Weather

Ben-Gurion Intl Apt, Tel Aviv, Israel

For information only: do not use for flight planning or navigation.
Latest weather
Observation time Thursday, May 5, 2016 9:20 AM IDT
Local time Thursday, May 5, 2016 9:38 AM IDT
Flight conditions Visual Meteorological Conditions
Winds
Wind direction South (180°)
Winds variable from 120° to 240°
Wind speed 6 mph
Visibility 6.2 mi.
Sky condition
Ceiling unlimited
Cloud layer few clouds 3,000 ft.
Temperature 73°F
Dewpoint 50°F
Altimeter 29.94 in.Hg
Derived measurements
Relative humidity 44%
Density altitude 1241 ft.
Remarks
No significant changes expected in the next two hours.
METAR LLBG 050620Z 18005KT 120V240 9999 FEW030 23/10 Q1014 NOSIG

Settings

Location code

InnerDrive.Weather 4.0.5722.1 Release CLR 4.0.30319.34209
Copyright ©2015 Inner Drive Technology. All rights reserved. Portions Copyright ©1986-2015 David Braverman.

Find weather

Site navigation


Skip Navigation Links

Place info

Page info

PayPal - The safer, easier way to pay online!

Return home.

Copyright ©2016 Inner Drive Technology. Purveyors of fine, hand-crafted computer software. Page printed 2016-05-05T06:38:27 UTC.